Time;durP1;ratioP1;P1;durP2;ratioP2;P2;SDS_P1;SDS_P2;PMS_P1;PMS_P2;Temp;Humidity;BMP_temperature;BMP_pressure;BME280_temperature;BME280_humidity;BME280_pressure;Samples;Min_cycle;Max_cycle;Signal;HPM_P1;HPM_P2
2023/08/18 00:01:16;;;;;;;3.65;2.60;;;21.30;99.90;;;;;;5072150;28;20523;-70
2023/08/18 00:03:42;;;;;;;4.80;2.83;;;21.30;99.90;;;;;;5073118;28;20032;-71
2023/08/18 00:06:07;;;;;;;4.60;3.00;;;21.30;99.90;;;;;;5069794;28;20112;-70
2023/08/18 00:08:33;;;;;;;4.47;2.60;;;21.30;99.90;;;;;;5074259;28;20020;-71
2023/08/18 00:10:59;;;;;;;3.67;2.75;;;21.30;99.90;;;;;;5071573;28;20029;-70
2023/08/18 00:13:25;;;;;;;4.40;2.92;;;21.30;99.90;;;;;;5073463;28;20024;-71
2023/08/18 00:15:50;;;;;;;7.90;3.05;;;21.30;99.90;;;;;;5068701;28;20033;-70
2023/08/18 00:18:16;;;;;;;3.65;2.75;;;21.30;99.90;;;;;;5072601;28;20054;-70
2023/08/18 00:20:41;;;;;;;3.72;2.50;;;21.30;99.90;;;;;;5060005;28;20083;-69
2023/08/18 00:23:07;;;;;;;5.13;2.60;;;21.30;99.90;;;;;;5071901;28;20481;-70
2023/08/18 00:25:33;;;;;;;3.05;2.50;;;21.20;99.90;;;;;;5067534;28;20031;-70
2023/08/18 00:27:59;;;;;;;3.60;2.83;;;21.20;99.90;;;;;;5072331;28;20095;-70
2023/08/18 00:30:25;;;;;;;4.72;2.90;;;21.20;99.90;;;;;;5054310;28;20025;-70
2023/08/18 00:32:51;;;;;;;5.50;2.63;;;21.10;99.90;;;;;;5070813;28;20013;-70
2023/08/18 00:35:17;;;;;;;4.80;2.92;;;21.00;99.90;;;;;;5067068;28;20113;-70
2023/08/18 00:37:44;;;;;;;4.82;2.72;;;21.00;99.90;;;;;;5070692;28;20056;-70
2023/08/18 00:40:11;;;;;;;4.35;2.80;;;21.00;99.90;;;;;;5067227;28;20104;-70
2023/08/18 00:42:36;;;;;;;4.40;2.42;;;20.90;99.90;;;;;;5072250;28;20031;-70
2023/08/18 00:45:03;;;;;;;7.20;3.47;;;20.90;99.90;;;;;;5066264;28;20832;-70
2023/08/18 00:47:30;;;;;;;4.75;3.00;;;20.80;99.90;;;;;;5071992;28;20048;-70
2023/08/18 00:49:57;;;;;;;5.13;2.35;;;20.80;99.90;;;;;;5067175;28;20079;-70
2023/08/18 00:52:23;;;;;;;4.05;2.42;;;20.80;99.90;;;;;;5072223;28;20087;-70
2023/08/18 00:54:51;;;;;;;5.85;2.80;;;20.80;99.90;;;;;;5067642;28;20507;-70
2023/08/18 00:57:17;;;;;;;4.38;2.53;;;20.80;99.90;;;;;;5072325;28;20051;-70
2023/08/18 00:59:44;;;;;;;5.47;2.70;;;20.80;99.90;;;;;;5067964;28;20029;-70
2023/08/18 01:02:09;;;;;;;6.13;3.20;;;20.80;99.90;;;;;;5072345;28;20099;-70
2023/08/18 01:04:35;;;;;;;8.30;3.30;;;20.70;99.90;;;;;;5068110;28;20107;-70
2023/08/18 01:07:01;;;;;;;3.88;2.60;;;20.70;99.90;;;;;;5072055;28;20108;-70
2023/08/18 01:09:28;;;;;;;3.33;2.50;;;20.70;99.90;;;;;;5065851;28;20031;-70
2023/08/18 01:12:15;;;;;;;8.68;2.72;;;20.70;99.90;;;;;;5069505;28;20017;-70
2023/08/18 01:15:03;;;;;;;5.15;3.22;;;20.60;99.90;;;;;;5064797;28;20021;-70
2023/08/18 01:17:42;;;;;;;5.22;2.78;;;20.60;99.90;;;;;;5068309;28;20406;-70
2023/08/18 01:20:10;;;;;;;4.75;2.40;;;20.60;99.90;;;;;;5062687;28;20029;-70
2023/08/18 01:22:36;;;;;;;5.35;2.95;;;20.70;99.90;;;;;;5058396;28;20021;-71
2023/08/18 01:25:03;;;;;;;5.90;2.65;;;20.70;99.90;;;;;;5060300;28;20083;-71
2023/08/18 01:27:33;;;;;;;4.55;2.65;;;20.80;99.90;;;;;;5048977;28;20024;-70
2023/08/18 01:30:00;;;;;;;3.30;2.28;;;20.80;99.90;;;;;;5060871;28;20025;-71
2023/08/18 01:32:30;;;;;;;5.53;2.58;;;20.80;99.90;;;;;;5073734;28;20449;-70
2023/08/18 01:34:59;;;;;;;4.15;2.75;;;20.80;99.90;;;;;;5074515;28;20052;-70
2023/08/18 01:37:27;;;;;;;5.25;2.40;;;20.80;99.90;;;;;;5073942;28;20508;-71
2023/08/18 01:39:54;;;;;;;5.68;2.20;;;20.90;99.90;;;;;;5074604;28;20369;-70
2023/08/18 01:42:20;;;;;;;2.95;2.10;;;20.90;99.90;;;;;;5074988;28;20115;-70
2023/08/18 01:44:46;;;;;;;2.95;2.10;;;20.90;99.90;;;;;;5075194;28;20039;-70
2023/08/18 01:47:11;;;;;;;7.32;2.60;;;21.00;99.90;;;;;;5068003;28;20501;-71
2023/08/18 01:49:37;;;;;;;4.38;2.40;;;21.00;99.90;;;;;;5065706;28;20029;-71
2023/08/18 01:52:03;;;;;;;4.30;2.15;;;21.10;99.90;;;;;;5061464;28;20033;-71
2023/08/18 01:54:29;;;;;;;4.55;2.28;;;21.10;99.90;;;;;;5065720;28;20034;-71
2023/08/18 01:56:54;;;;;;;6.00;3.20;;;21.10;99.90;;;;;;5060300;28;20155;-70
2023/08/18 01:59:20;;;;;;;4.57;2.58;;;21.30;99.90;;;;;;5065424;28;20659;-71
2023/08/18 02:01:45;;;;;;;3.58;2.47;;;21.20;99.90;;;;;;5059509;28;20052;-71
2023/08/18 02:04:11;;;;;;;4.38;2.60;;;21.20;99.90;;;;;;5065848;28;20036;-71
2023/08/18 02:06:37;;;;;;;8.80;2.95;;;21.20;99.90;;;;;;5059441;28;20047;-70
2023/08/18 02:09:03;;;;;;;4.55;2.63;;;21.20;99.90;;;;;;5065765;28;20032;-70
2023/08/18 02:11:29;;;;;;;4.40;2.50;;;21.10;99.90;;;;;;5046179;28;20025;-70
2023/08/18 02:13:55;;;;;;;6.30;2.58;;;21.10;99.90;;;;;;5065348;28;20027;-70
2023/08/18 02:16:20;;;;;;;4.72;2.08;;;21.20;99.90;;;;;;5058900;28;20029;-70
2023/08/18 02:18:47;;;;;;;4.25;2.25;;;21.20;99.90;;;;;;5064642;28;20572;-72
2023/08/18 02:21:14;;;;;;;4.90;2.40;;;21.20;99.90;;;;;;5048314;28;20024;-72
2023/08/18 02:23:40;;;;;;;3.67;1.85;;;21.10;99.90;;;;;;5046369;28;20051;-71
2023/08/18 02:26:06;;;;;;;5.60;2.42;;;21.20;99.90;;;;;;5061374;28;20162;-72
2023/08/18 02:28:33;;;;;;;4.15;2.13;;;21.10;99.90;;;;;;5060645;28;20048;-72
2023/08/18 02:31:10;;;;;;;4.45;2.50;;;21.20;99.90;;;;;;5070699;28;20078;-71
2023/08/18 02:33:36;;;;;;;3.53;2.80;;;21.10;99.90;;;;;;5067754;28;20024;-71
2023/08/18 02:36:02;;;;;;;2.80;1.83;;;21.10;99.90;;;;;;5057086;28;20033;-72
2023/08/18 02:38:29;;;;;;;4.10;2.85;;;20.90;99.90;;;;;;5061176;28;20090;-72
2023/08/18 02:40:55;;;;;;;3.40;2.45;;;20.80;99.90;;;;;;5060328;28;20818;-71
2023/08/18 02:43:22;;;;;;;3.42;2.10;;;20.80;99.90;;;;;;5072794;28;20029;-71
2023/08/18 02:45:48;;;;;;;4.05;3.00;;;20.70;99.90;;;;;;5076269;28;20052;-71
2023/08/18 02:48:15;;;;;;;4.32;2.53;;;20.70;99.90;;;;;;5071650;28;20024;-72
2023/08/18 02:50:41;;;;;;;4.18;2.38;;;20.60;99.90;;;;;;5075685;28;20120;-71
2023/08/18 02:53:07;;;;;;;3.65;2.60;;;20.50;99.90;;;;;;5071519;28;20049;-71
2023/08/18 02:55:36;;;;;;;4.90;2.53;;;20.40;99.90;;;;;;5075996;28;20048;-69
2023/08/18 02:58:03;;;;;;;5.55;3.00;;;20.40;99.90;;;;;;5071779;28;20075;-69
2023/08/18 03:00:29;;;;;;;4.38;2.40;;;20.30;99.90;;;;;;5068911;28;20044;-69
2023/08/18 03:02:54;;;;;;;4.05;2.47;;;20.20;99.90;;;;;;5063976;28;20021;-69
2023/08/18 03:05:20;;;;;;;4.03;2.20;;;20.20;99.90;;;;;;5062092;28;20060;-69
2023/08/18 03:07:46;;;;;;;8.35;3.28;;;20.10;99.90;;;;;;5053006;28;20033;-69
2023/08/18 03:10:12;;;;;;;3.80;2.72;;;20.00;99.90;;;;;;5064655;28;20060;-69
2023/08/18 03:12:37;;;;;;;3.13;2.67;;;20.00;99.90;;;;;;5063554;28;20055;-70
2023/08/18 03:15:04;;;;;;;5.88;2.60;;;20.00;99.90;;;;;;5063390;28;20021;-70
2023/08/18 03:17:29;;;;;;;8.90;2.60;;;19.90;99.90;;;;;;5063973;28;20039;-71
2023/08/18 03:19:55;;;;;;;5.22;2.83;;;19.90;99.90;;;;;;5061246;28;20459;-70
2023/08/18 03:22:21;;;;;;;3.88;2.60;;;19.80;99.90;;;;;;5052640;28;20033;-70
2023/08/18 03:24:47;;;;;;;4.07;2.38;;;19.80;99.90;;;;;;5050184;28;20061;-71
2023/08/18 03:27:13;;;;;;;6.43;2.80;;;19.80;99.90;;;;;;5062218;28;20025;-71
2023/08/18 03:29:38;;;;;;;4.72;2.78;;;19.70;99.90;;;;;;5063912;28;20507;-70
2023/08/18 03:32:05;;;;;;;3.58;2.25;;;19.70;99.90;;;;;;5063319;28;20021;-71
2023/08/18 03:34:31;;;;;;;4.88;2.65;;;19.70;99.90;;;;;;5063463;28;20078;-70
2023/08/18 03:36:57;;;;;;;4.10;2.53;;;19.70;99.90;;;;;;5061812;28;20088;-71
2023/08/18 03:39:22;;;;;;;7.00;3.40;;;19.60;99.90;;;;;;5063305;28;20037;-71
2023/08/18 03:41:48;;;;;;;6.13;3.28;;;19.50;99.90;;;;;;5062601;28;20056;-70
2023/08/18 03:44:13;;;;;;;4.30;2.70;;;19.50;99.90;;;;;;5062885;28;20025;-71
2023/08/18 03:46:39;;;;;;;4.85;2.47;;;19.50;99.90;;;;;;5063006;28;20025;-70
2023/08/18 03:49:06;;;;;;;5.60;3.10;;;19.40;99.90;;;;;;5061529;28;20079;-70
2023/08/18 03:51:33;;;;;;;4.15;2.70;;;19.40;99.90;;;;;;5062589;28;20017;-70
2023/08/18 03:53:58;;;;;;;6.95;3.60;;;19.40;99.90;;;;;;5062591;28;20037;-70
2023/08/18 03:56:24;;;;;;;5.72;2.83;;;19.40;99.90;;;;;;5062235;28;20025;-70
2023/08/18 03:58:50;;;;;;;4.63;2.75;;;19.40;99.90;;;;;;5061860;28;20491;-71
2023/08/18 04:01:15;;;;;;;5.57;3.22;;;19.40;99.90;;;;;;5061851;28;20393;-70
2023/08/18 04:03:43;;;;;;;4.50;2.85;;;19.30;99.90;;;;;;5062317;28;20054;-71
2023/08/18 04:06:09;;;;;;;5.47;3.47;;;19.30;99.90;;;;;;5060484;28;20075;-71
2023/08/18 04:08:40;;;;;;;4.75;3.28;;;19.20;99.90;;;;;;5061371;28;20021;-71
2023/08/18 04:11:06;;;;;;;8.30;3.05;;;19.20;99.90;;;;;;5061531;28;20123;-71
2023/08/18 04:13:32;;;;;;;4.60;2.78;;;19.20;99.90;;;;;;5063580;28;20056;-71
2023/08/18 04:15:57;;;;;;;6.85;3.50;;;19.20;99.90;;;;;;5061264;28;20036;-71
2023/08/18 04:18:23;;;;;;;3.22;2.85;;;19.10;99.90;;;;;;5062701;28;20020;-71
2023/08/18 04:20:49;;;;;;;5.15;3.00;;;19.10;99.90;;;;;;5065400;28;20057;-71
2023/08/18 04:23:15;;;;;;;4.03;3.13;;;19.10;99.90;;;;;;5071791;28;20036;-71
2023/08/18 04:25:42;;;;;;;4.40;3.30;;;19.00;99.90;;;;;;5063712;28;20033;-71
2023/08/18 04:28:08;;;;;;;4.47;3.70;;;19.00;99.90;;;;;;5072811;28;20020;-71
2023/08/18 04:30:33;;;;;;;4.55;3.13;;;19.00;99.90;;;;;;5071647;28;20017;-71
2023/08/18 04:32:59;;;;;;;6.00;3.05;;;19.00;99.90;;;;;;5074443;28;20033;-70
2023/08/18 04:35:25;;;;;;;4.30;2.97;;;19.00;99.90;;;;;;5071222;28;20028;-70
2023/08/18 04:37:51;;;;;;;6.88;3.58;;;18.90;99.90;;;;;;5070239;28;20017;-71
2023/08/18 04:40:17;;;;;;;6.32;3.05;;;18.80;99.90;;;;;;5065218;28;20047;-71
2023/08/18 04:42:42;;;;;;;5.03;3.17;;;18.80;99.90;;;;;;5069548;28;20021;-71
2023/08/18 04:45:08;;;;;;;5.15;3.42;;;18.70;99.90;;;;;;5065573;28;20029;-71
2023/08/18 04:47:34;;;;;;;5.13;3.50;;;18.70;99.90;;;;;;5069712;28;20039;-71
2023/08/18 04:50:00;;;;;;;5.53;3.50;;;18.70;99.90;;;;;;5065695;28;20025;-71
2023/08/18 04:52:25;;;;;;;6.38;3.33;;;18.70;99.90;;;;;;5068190;28;20028;-71
2023/08/18 04:54:51;;;;;;;5.22;3.90;;;18.70;99.90;;;;;;5059193;28;20090;-71
2023/08/18 04:57:17;;;;;;;4.40;3.28;;;18.70;99.90;;;;;;5057424;28;20033;-71
2023/08/18 04:59:43;;;;;;;3.92;3.35;;;18.60;99.90;;;;;;5058426;28;20020;-71
2023/08/18 05:02:09;;;;;;;6.53;3.67;;;18.60;99.90;;;;;;5065755;28;20039;-71
2023/08/18 05:04:34;;;;;;;9.20;4.15;;;18.60;99.90;;;;;;5059952;28;20033;-72
2023/08/18 05:07:00;;;;;;;4.97;3.38;;;18.60;99.90;;;;;;5072658;28;20135;-72
2023/08/18 05:09:25;;;;;;;5.93;3.20;;;18.60;99.90;;;;;;5067383;28;20024;-72
2023/08/18 05:11:51;;;;;;;5.03;3.72;;;18.60;99.90;;;;;;5055219;28;20071;-72
2023/08/18 05:14:17;;;;;;;6.78;3.78;;;18.70;99.90;;;;;;5056926;28;20017;-72
2023/08/18 05:16:42;;;;;;;5.55;3.63;;;18.70;99.90;;;;;;5056884;28;20029;-72
2023/08/18 05:19:08;;;;;;;6.05;3.70;;;18.70;99.90;;;;;;5069465;28;20024;-72
2023/08/18 05:21:34;;;;;;;5.15;3.55;;;18.80;99.90;;;;;;5067246;28;20029;-72
2023/08/18 05:23:59;;;;;;;7.18;3.63;;;18.80;99.90;;;;;;5069033;28;20044;-71
2023/08/18 05:26:25;;;;;;;6.47;3.60;;;18.90;99.90;;;;;;5071965;28;20471;-72
2023/08/18 05:28:50;;;;;;;7.25;3.25;;;18.90;99.90;;;;;;5070575;28;20693;-72
2023/08/18 05:31:16;;;;;;;4.88;3.50;;;19.00;99.90;;;;;;5073370;28;20510;-72
2023/08/18 05:33:42;;;;;;;4.95;3.13;;;19.00;99.90;;;;;;5070247;28;20025;-72
2023/08/18 05:36:07;;;;;;;5.88;3.28;;;19.20;99.90;;;;;;5065381;28;20040;-72
2023/08/18 05:38:33;;;;;;;5.82;3.28;;;19.30;99.90;;;;;;5052159;28;20026;-72
2023/08/18 05:41:07;;;;;;;4.43;3.55;;;19.40;99.90;;;;;;5056318;28;20082;-72
2023/08/18 05:43:37;;;;;;;6.38;3.60;;;19.40;99.90;;;;;;5059415;28;20029;-72
2023/08/18 05:46:03;;;;;;;6.63;3.93;;;19.50;99.90;;;;;;5061574;28;20035;-71
2023/08/18 05:48:32;;;;;;;5.47;3.17;;;19.60;99.90;;;;;;5058912;28;20025;-72
2023/08/18 05:50:58;;;;;;;6.32;3.92;;;19.70;99.90;;;;;;5058751;28;20024;-72
2023/08/18 05:53:24;;;;;;;4.70;3.20;;;19.90;99.90;;;;;;5055835;28;20035;-72
2023/08/18 05:55:50;;;;;;;6.70;3.72;;;20.00;99.90;;;;;;5055855;28;20493;-72
2023/08/18 05:58:16;;;;;;;4.20;3.22;;;20.00;99.90;;;;;;5040685;28;20029;-71
2023/08/18 06:00:42;;;;;;;8.68;3.53;;;20.10;99.90;;;;;;5053699;28;20039;-72
2023/08/18 06:03:08;;;;;;;5.53;3.38;;;20.30;99.90;;;;;;5052146;28;20033;-72
2023/08/18 06:05:34;;;;;;;5.18;3.42;;;20.30;99.90;;;;;;5051749;28;20021;-72
2023/08/18 06:08:00;;;;;;;5.38;3.25;;;20.40;99.90;;;;;;5055381;28;20021;-72
2023/08/18 06:10:25;;;;;;;7.68;3.42;;;20.50;99.90;;;;;;5056238;28;20686;-75
2023/08/18 06:12:51;;;;;;;6.78;3.38;;;20.50;99.90;;;;;;5060017;28;20056;-72
2023/08/18 06:15:19;;;;;;;6.28;3.58;;;20.60;99.90;;;;;;5062876;28;20024;-73
2023/08/18 06:17:45;;;;;;;4.68;3.33;;;20.60;99.90;;;;;;5055532;28;20021;-73
2023/08/18 06:20:12;;;;;;;5.00;3.05;;;20.70;99.90;;;;;;5062646;28;20026;-73
2023/08/18 06:22:37;;;;;;;6.20;2.75;;;20.80;99.90;;;;;;5058203;28;20032;-74
2023/08/18 06:25:07;;;;;;;4.97;3.17;;;20.80;99.90;;;;;;5058297;28;20053;-73
2023/08/18 06:27:33;;;;;;;6.70;3.70;;;20.90;99.90;;;;;;5058769;28;20033;-73
2023/08/18 06:29:59;;;;;;;5.25;3.10;;;20.90;99.90;;;;;;5059273;28;20023;-73
2023/08/18 06:32:25;;;;;;;4.72;3.38;;;21.10;99.90;;;;;;5060398;28;20085;-73
2023/08/18 06:34:51;;;;;;;6.28;2.85;;;21.20;99.90;;;;;;5061616;28;20016;-73
2023/08/18 06:37:17;;;;;;;7.45;3.92;;;21.30;99.90;;;;;;5059755;28;20033;-73
2023/08/18 06:39:43;;;;;;;10.38;3.63;;;21.50;99.90;;;;;;5057057;28;20021;-73
2023/08/18 06:42:08;;;;;;;6.03;2.92;;;21.60;99.90;;;;;;5062465;28;20516;-73
2023/08/18 06:44:34;;;;;;;5.32;3.20;;;21.70;99.90;;;;;;5058359;28;20096;-73
2023/08/18 06:47:01;;;;;;;7.43;3.15;;;21.80;99.90;;;;;;5058763;28;20033;-73
2023/08/18 06:49:26;;;;;;;4.68;2.85;;;21.90;99.90;;;;;;5056651;28;20020;-73
2023/08/18 06:51:52;;;;;;;3.85;2.67;;;22.00;99.90;;;;;;5058136;28;20120;-73
2023/08/18 06:54:18;;;;;;;4.57;2.67;;;22.10;99.90;;;;;;5058583;28;20021;-73
2023/08/18 06:56:44;;;;;;;3.78;2.42;;;22.20;99.90;;;;;;5055541;28;20033;-73
2023/08/18 06:59:12;;;;;;;5.28;2.75;;;22.30;99.90;;;;;;5057247;28;20085;-73
2023/08/18 07:01:38;;;;;;;3.70;3.00;;;22.40;99.90;;;;;;5055884;28;20125;-73
2023/08/18 07:04:04;;;;;;;4.35;2.90;;;22.40;99.90;;;;;;5061345;28;20021;-73
2023/08/18 07:06:33;;;;;;;5.90;2.75;;;22.40;99.90;;;;;;5058134;28;20109;-74
2023/08/18 07:08:59;;;;;;;5.00;2.67;;;22.40;99.90;;;;;;5055574;28;20032;-72
2023/08/18 07:11:25;;;;;;;5.78;2.78;;;22.30;99.90;;;;;;5058778;28;20032;-73
2023/08/18 07:13:51;;;;;;;6.32;2.90;;;22.30;99.90;;;;;;5059290;28;20013;-73
2023/08/18 07:16:16;;;;;;;3.45;2.58;;;22.30;99.90;;;;;;5057542;28;20040;-72
2023/08/18 07:18:42;;;;;;;4.93;2.38;;;22.30;99.90;;;;;;5060258;28;20029;-73
2023/08/18 07:21:08;;;;;;;4.35;2.60;;;22.30;99.90;;;;;;5059322;28;20057;-73
2023/08/18 07:23:33;;;;;;;8.15;2.40;;;22.20;99.90;;;;;;5057150;28;20509;-73
2023/08/18 07:25:59;;;;;;;6.00;2.80;;;22.20;99.90;;;;;;5063191;28;20409;-73
2023/08/18 07:28:25;;;;;;;5.97;2.70;;;22.10;99.90;;;;;;5056800;28;20021;-73
2023/08/18 07:30:51;;;;;;;3.78;2.40;;;22.10;99.90;;;;;;5057809;28;20390;-73
2023/08/18 07:33:17;;;;;;;4.68;2.42;;;22.20;99.90;;;;;;5056823;28;20067;-74
2023/08/18 07:35:43;;;;;;;8.55;2.97;;;22.30;99.90;;;;;;5056770;28;20013;-73
2023/08/18 07:38:09;;;;;;;4.03;2.80;;;22.40;99.90;;;;;;5056228;28;20028;-72
2023/08/18 07:40:34;;;;;;;6.20;3.15;;;22.60;99.90;;;;;;5058662;28;20013;-72
2023/08/18 07:43:00;;;;;;;7.68;2.97;;;22.90;99.90;;;;;;5063691;28;20017;-73
2023/08/18 07:45:29;;;;;;;6.35;2.55;;;23.20;99.90;;;;;;5058446;28;20087;-74
2023/08/18 07:47:54;;;;;;;7.45;2.70;;;23.40;99.90;;;;;;5048448;28;20720;-74
2023/08/18 07:50:20;;;;;;;5.57;3.03;;;23.70;99.90;;;;;;5057113;28;20029;-75
2023/08/18 07:52:46;;;;;;;6.20;2.70;;;24.00;99.90;;;;;;5058760;28;20104;-74
2023/08/18 07:55:11;;;;;;;4.18;2.75;;;24.20;99.90;;;;;;5059987;28;20060;-73
2023/08/18 07:57:37;;;;;;;4.07;2.20;;;24.40;99.90;;;;;;5054709;28;20017;-73
2023/08/18 08:00:15;;;;;;;3.90;2.60;;;24.60;99.90;;;;;;5061390;28;20056;-75
2023/08/18 08:02:41;;;;;;;3.95;2.30;;;24.80;99.90;;;;;;5055770;28;20032;-74
2023/08/18 08:05:07;;;;;;;3.88;2.53;;;25.00;99.90;;;;;;5056578;28;20021;-75
2023/08/18 08:07:33;;;;;;;3.15;2.20;;;25.30;99.90;;;;;;5054549;28;20079;-74
2023/08/18 08:10:03;;;;;;;6.07;2.40;;;25.50;99.90;;;;;;5058432;28;20488;-75
2023/08/18 08:12:30;;;;;;;8.32;2.25;;;25.60;99.90;;;;;;5059069;28;20078;-76
2023/08/18 08:14:56;;;;;;;2.92;1.60;;;25.60;99.90;;;;;;5054117;28;20017;-75
2023/08/18 08:17:22;;;;;;;4.38;1.50;;;25.50;99.90;;;;;;5059262;28;20493;-75
2023/08/18 08:19:48;;;;;;;4.57;2.00;;;25.60;99.90;;;;;;5048419;28;20025;-74
2023/08/18 08:22:15;;;;;;;3.10;2.05;;;25.80;99.90;;;;;;5052635;28;20061;-75
2023/08/18 08:24:40;;;;;;;3.17;1.83;;;25.90;99.90;;;;;;5055467;28;20557;-74
2023/08/18 08:27:06;;;;;;;3.28;1.88;;;25.90;99.90;;;;;;5049071;28;20072;-73
2023/08/18 08:29:31;;;;;;;7.15;1.75;;;26.10;99.90;;;;;;5054250;28;20443;-74
2023/08/18 08:31:57;;;;;;;7.25;2.13;;;26.30;99.90;;;;;;5058392;28;20546;-74
2023/08/18 08:34:23;;;;;;;2.92;1.83;;;26.50;99.90;;;;;;5053230;28;20432;-73
2023/08/18 08:36:48;;;;;;;3.88;1.70;;;26.40;99.90;;;;;;5058130;28;20055;-74
2023/08/18 08:39:14;;;;;;;2.72;1.42;;;26.50;99.90;;;;;;5051924;28;20041;-75
2023/08/18 08:41:39;;;;;;;3.72;1.50;;;26.60;99.90;;;;;;5054653;28;20041;-73
2023/08/18 08:44:05;;;;;;;9.23;1.77;;;26.80;99.90;;;;;;5057084;28;20497;-74
2023/08/18 08:46:33;;;;;;;3.67;1.77;;;26.90;99.90;;;;;;5054416;28;20505;-72
2023/08/18 08:49:03;;;;;;;3.97;1.90;;;27.00;99.90;;;;;;5060646;28;20491;-73
2023/08/18 08:51:34;;;;;;;2.67;1.70;;;27.10;99.90;;;;;;5056997;28;20020;-73
2023/08/18 08:54:02;;;;;;;2.33;1.60;;;27.30;99.90;;;;;;5051565;28;20025;-73
2023/08/18 08:56:31;;;;;;;8.27;1.88;;;27.30;99.90;;;;;;5060164;28;20424;-74
2023/08/18 08:58:57;;;;;;;2.97;1.58;;;27.30;99.30;;;;;;5057758;28;20047;-74
2023/08/18 09:01:23;;;;;;;3.13;1.35;;;27.30;99.90;;;;;;5056065;28;20444;-74
2023/08/18 09:03:50;;;;;;;5.28;1.65;;;27.40;98.90;;;;;;5058046;28;20025;-73
2023/08/18 09:06:16;;;;;;;2.25;1.77;;;27.60;98.60;;;;;;5054256;28;20710;-76
2023/08/18 09:08:41;;;;;;;3.97;2.17;;;27.70;98.00;;;;;;5051277;28;20032;-75
2023/08/18 09:11:08;;;;;;;5.38;1.70;;;27.80;97.20;;;;;;5058955;28;20025;-73
2023/08/18 09:13:35;;;;;;;6.18;1.92;;;27.60;96.60;;;;;;5066155;28;20055;-73
2023/08/18 09:16:03;;;;;;;3.63;1.90;;;27.60;96.60;;;;;;5059315;28;20469;-74
2023/08/18 09:18:32;;;;;;;2.00;1.55;;;27.80;96.20;;;;;;5052204;28;20028;-72
2023/08/18 09:20:57;;;;;;;2.80;1.60;;;28.00;95.70;;;;;;5051163;28;20029;-72
2023/08/18 09:23:27;;;;;;;4.00;1.20;;;28.20;95.60;;;;;;5054222;28;20155;-74
2023/08/18 09:25:55;;;;;;;3.03;1.95;;;28.30;95.90;;;;;;5052917;28;20037;-74
2023/08/18 09:28:20;;;;;;;5.18;1.85;;;28.30;95.40;;;;;;5060622;28;20020;-73
2023/08/18 09:30:46;;;;;;;3.08;1.60;;;28.30;94.20;;;;;;5054387;28;20021;-74
2023/08/18 09:33:12;;;;;;;4.32;1.73;;;28.40;94.70;;;;;;5055460;28;20025;-75
2023/08/18 09:35:38;;;;;;;3.42;1.73;;;28.40;92.70;;;;;;5051060;28;20162;-74
2023/08/18 09:38:04;;;;;;;2.70;1.45;;;28.40;93.20;;;;;;5053539;28;20024;-75
2023/08/18 09:40:29;;;;;;;4.30;1.73;;;28.60;92.60;;;;;;5051336;28;20025;-75
2023/08/18 09:42:56;;;;;;;5.32;2.22;;;28.70;93.00;;;;;;5054501;28;20024;-72
2023/08/18 09:45:23;;;;;;;5.00;2.33;;;28.80;91.90;;;;;;5057213;28;20029;-73
2023/08/18 09:47:52;;;;;;;2.88;1.73;;;29.00;91.40;;;;;;5058789;28;20021;-73
2023/08/18 09:50:20;;;;;;;3.08;1.60;;;29.20;90.70;;;;;;5054877;28;20555;-78
2023/08/18 09:52:51;;;;;;;3.05;1.67;;;29.20;90.60;;;;;;5059284;28;20017;-75
2023/08/18 09:55:19;;;;;;;5.75;1.75;;;29.00;90.10;;;;;;5055792;28;20035;-76
2023/08/18 09:58:17;;;;;;;3.50;1.70;;;29.00;88.30;;;;;;5050636;28;20188;-75
2023/08/18 10:00:45;;;;;;;3.38;1.50;;;29.10;90.50;;;;;;5054716;28;20045;-74
2023/08/18 10:03:16;;;;;;;5.97;2.65;;;29.30;90.80;;;;;;5054286;28;20051;-74
2023/08/18 10:05:43;;;;;;;6.53;1.75;;;29.30;90.30;;;;;;5055073;28;20020;-73
2023/08/18 10:08:09;;;;;;;8.07;2.30;;;29.50;90.30;;;;;;5055392;28;20032;-74
2023/08/18 10:10:36;;;;;;;5.97;2.42;;;29.60;90.20;;;;;;5056137;28;20033;-74
2023/08/18 10:13:03;;;;;;;6.50;1.90;;;29.60;88.60;;;;;;5057282;28;20074;-73
2023/08/18 10:15:29;;;;;;;8.57;2.35;;;29.70;87.40;;;;;;5051452;28;20025;-74
2023/08/18 10:17:56;;;;;;;5.65;2.60;;;29.90;89.10;;;;;;5052535;28;20060;-76
2023/08/18 10:20:26;;;;;;;4.30;2.10;;;29.90;87.60;;;;;;5059182;28;20108;-74
2023/08/18 10:22:54;;;;;;;7.35;1.88;;;30.00;87.60;;;;;;5054249;28;20085;-74
2023/08/18 10:25:29;;;;;;;5.90;2.38;;;30.20;86.80;;;;;;5055477;28;20044;-73
2023/08/18 10:27:54;;;;;;;2.63;1.92;;;30.10;86.40;;;;;;5055627;28;20029;-73
2023/08/18 10:30:20;;;;;;;5.38;2.05;;;29.80;87.40;;;;;;5055147;28;20382;-74
2023/08/18 10:32:46;;;;;;;3.58;2.00;;;29.60;87.30;;;;;;5056647;28;20515;-74
2023/08/18 10:35:28;;;;;;;3.88;1.98;;;29.40;88.30;;;;;;5057140;28;20025;-74
2023/08/18 10:38:03;;;;;;;6.22;2.65;;;29.30;89.80;;;;;;5055701;28;20024;-74
2023/08/18 10:40:29;;;;;;;5.43;2.05;;;29.50;90.10;;;;;;5050430;28;20029;-74
2023/08/18 10:43:03;;;;;;;6.65;2.42;;;29.80;90.00;;;;;;5059260;28;20025;-73
2023/08/18 10:45:30;;;;;;;8.82;2.28;;;30.10;88.50;;;;;;5054338;28;20025;-74
2023/08/18 10:48:00;;;;;;;5.53;1.85;;;30.20;89.50;;;;;;5058862;28;20528;-74
2023/08/18 10:50:28;;;;;;;3.95;2.03;;;30.60;85.30;;;;;;5050541;28;20025;-72
2023/08/18 10:52:57;;;;;;;4.65;2.90;;;30.80;86.80;;;;;;5053599;28;20028;-74
2023/08/18 10:55:24;;;;;;;5.03;2.40;;;31.00;85.90;;;;;;5054187;28;20025;-74
2023/08/18 10:57:50;;;;;;;5.35;2.22;;;31.10;86.60;;;;;;5055492;28;20086;-73
2023/08/18 11:00:18;;;;;;;3.28;2.00;;;31.10;83.20;;;;;;5058647;28;20029;-75
2023/08/18 11:02:49;;;;;;;3.05;1.90;;;31.20;82.70;;;;;;5062275;28;20040;-74
2023/08/18 11:05:17;;;;;;;3.67;1.80;;;31.20;84.00;;;;;;5057901;28;20044;-75
2023/08/18 11:07:43;;;;;;;3.47;1.92;;;31.40;83.60;;;;;;5056233;28;20060;-73
2023/08/18 11:10:22;;;;;;;3.35;1.98;;;31.40;83.80;;;;;;5054980;28;20052;-74
2023/08/18 11:12:49;;;;;;;5.07;2.05;;;31.40;81.70;;;;;;5056700;28;20052;-74
2023/08/18 11:15:18;;;;;;;5.55;1.98;;;31.10;81.80;;;;;;5063962;28;20029;-72
2023/08/18 11:17:43;;;;;;;5.82;2.42;;;30.90;82.80;;;;;;5057926;28;20443;-73
2023/08/18 11:20:13;;;;;;;4.43;2.40;;;30.80;82.60;;;;;;5059060;28;20025;-74
2023/08/18 11:22:44;;;;;;;6.03;2.28;;;31.00;84.40;;;;;;5059411;28;20510;-74
2023/08/18 11:25:11;;;;;;;6.55;2.88;;;31.30;81.90;;;;;;5056725;28;20426;-75
2023/08/18 11:27:40;;;;;;;5.93;1.80;;;31.30;82.10;;;;;;5059829;28;20040;-75
2023/08/18 11:30:10;;;;;;;5.00;2.28;;;31.40;82.50;;;;;;5057997;28;20035;-74
2023/08/18 11:32:40;;;;;;;4.50;2.53;;;31.40;82.30;;;;;;5062366;28;20025;-75
2023/08/18 11:35:09;;;;;;;9.82;2.00;;;31.30;82.00;;;;;;5057105;28;20057;-73
2023/08/18 11:37:42;;;;;;;6.72;1.70;;;31.20;81.70;;;;;;5059901;28;20050;-74
2023/08/18 11:40:12;;;;;;;3.42;2.13;;;31.20;81.50;;;;;;5054719;28;20032;-74
2023/08/18 11:42:48;;;;;;;3.92;2.05;;;31.30;79.80;;;;;;5060548;28;20024;-75
2023/08/18 11:45:19;;;;;;;12.20;2.83;;;31.20;80.10;;;;;;5057616;28;20048;-73
2023/08/18 11:47:46;;;;;;;4.95;2.22;;;31.20;81.20;;;;;;5059099;28;20029;-76
2023/08/18 11:50:19;;;;;;;8.93;2.38;;;31.30;82.20;;;;;;5057410;28;20039;-76
2023/08/18 11:52:47;;;;;;;4.10;2.28;;;31.40;80.50;;;;;;5055423;28;20048;-74
2023/08/18 11:55:13;;;;;;;6.47;2.17;;;31.60;80.90;;;;;;5059033;28;20408;-75
2023/08/18 11:57:41;;;;;;;3.25;2.08;;;31.60;79.30;;;;;;5053968;28;20060;-75
2023/08/18 12:00:13;;;;;;;4.72;2.60;;;31.70;79.20;;;;;;5053702;28;20116;-76
2023/08/18 12:02:46;;;;;;;7.07;2.13;;;31.90;80.40;;;;;;5056276;28;20579;-76
2023/08/18 12:05:22;;;;;;;6.07;2.50;;;31.80;80.60;;;;;;5054854;28;20055;-76
2023/08/18 12:07:51;;;;;;;5.65;2.33;;;31.80;81.60;;;;;;5056870;28;20074;-76
2023/08/18 12:10:16;;;;;;;6.88;2.30;;;31.80;81.10;;;;;;5054441;28;20028;-75
2023/08/18 12:12:42;;;;;;;9.55;2.30;;;31.80;80.70;;;;;;5054562;28;20029;-74
2023/08/18 12:15:08;;;;;;;8.50;3.08;;;31.80;80.80;;;;;;5060313;28;20033;-75
2023/08/18 12:17:34;;;;;;;10.30;2.55;;;31.70;80.40;;;;;;5055396;28;20033;-75
2023/08/18 12:19:59;;;;;;;8.25;2.53;;;31.90;79.80;;;;;;5055688;28;20513;-76
2023/08/18 12:22:25;;;;;;;6.63;2.30;;;32.10;80.50;;;;;;5056677;28;20029;-75
2023/08/18 12:24:51;;;;;;;7.85;2.20;;;32.10;79.50;;;;;;5057248;28;20123;-76
2023/08/18 12:27:16;;;;;;;8.52;2.38;;;32.20;79.30;;;;;;5060103;28;20042;-79
2023/08/18 12:29:42;;;;;;;11.73;2.42;;;32.20;79.60;;;;;;5054999;28;20045;-75
2023/08/18 12:32:08;;;;;;;10.13;2.97;;;32.10;80.40;;;;;;5062350;28;20023;-77
2023/08/18 12:34:33;;;;;;;5.90;2.50;;;32.00;79.60;;;;;;5058930;28;20023;-76
2023/08/18 12:37:00;;;;;;;8.88;2.30;;;32.20;80.90;;;;;;5056480;28;20037;-77
2023/08/18 12:39:26;;;;;;;5.28;2.25;;;32.30;81.80;;;;;;5057178;28;20040;-73
2023/08/18 12:41:53;;;;;;;8.23;2.20;;;32.40;82.30;;;;;;5059318;28;20103;-77
2023/08/18 12:44:18;;;;;;;11.10;2.75;;;32.40;80.90;;;;;;5056106;28;20025;-76